Time;durP1;ratioP1;P1;durP2;ratioP2;P2;SDS_P1;SDS_P2;PMS_P1;PMS_P2;Temp;Humidity;BMP_temperature;BMP_pressure;BME280_temperature;BME280_humidity;BME280_pressure;Samples;Min_cycle;Max_cycle;Signal;HPM_P1;HPM_P2
2022/04/06 00:00:35;;;;;;;29.63;13.23;;;;;;;10.44;41.48;99804.02;123216;1099;104358;-78
2022/04/06 00:03:14;;;;;;;25.87;12.93;;;;;;;10.43;41.83;99807.47;123454;1099;104325;-78
2022/04/06 00:05:47;;;;;;;26.90;12.57;;;;;;;10.41;41.61;99810.05;123469;1099;104341;-77
2022/04/06 00:08:28;;;;;;;28.73;12.53;;;;;;;10.39;41.30;99811.77;123229;1100;104476;-79
2022/04/06 00:11:06;;;;;;;26.50;13.00;;;;;;;10.38;41.63;99815.22;123111;1102;104361;-78
2022/04/06 00:13:58;;;;;;;24.10;12.45;;;;;;;10.35;41.40;99812.52;123204;1102;104421;-77
2022/04/06 00:16:30;;;;;;;25.30;12.87;;;;;;;10.34;41.51;99815.98;123197;1102;104396;-78
2022/04/06 00:19:05;;;;;;;25.43;12.13;;;;;;;10.34;41.67;99817.73;123030;1099;104486;-78
2022/04/06 00:24:45;;;;;;;24.97;12.47;;;;;;;10.30;41.61;99816.73;123023;1102;104418;-78
2022/04/06 00:27:22;;;;;;;25.70;12.23;;;;;;;10.30;42.01;99823.70;123186;1102;104328;-77
2022/04/06 00:29:56;;;;;;;24.53;11.20;;;;;;;10.28;42.04;99826.28;123048;1102;104428;-77
2022/04/06 00:32:39;;;;;;;23.53;11.07;;;;;;;10.25;42.14;99829.73;122851;1101;104498;-78
2022/04/06 00:35:31;;;;;;;21.13;9.90;;;;;;;10.24;42.32;99827.06;123101;1102;104808;-78
2022/04/06 00:38:10;;;;;;;20.50;9.10;;;;;;;10.23;42.03;99830.52;123154;1102;104434;-78
2022/04/06 00:40:45;;;;;;;20.80;9.03;;;;;;;10.23;42.29;99827.91;123287;1101;104303;-78
2022/04/06 00:43:17;;;;;;;19.57;8.90;;;;;;;10.23;42.00;99830.52;123084;1102;104425;-77
2022/04/06 00:45:49;;;;;;;18.63;8.50;;;;;;;10.22;41.59;99839.23;123041;1102;104816;-78
2022/04/06 00:48:20;;;;;;;20.60;9.00;;;;;;;10.21;41.85;99837.47;122979;1099;104495;-78
2022/04/06 00:50:52;;;;;;;20.50;9.70;;;;;;;10.21;42.12;99837.47;123146;1099;104476;-78
2022/04/06 00:53:26;;;;;;;20.73;9.80;;;;;;;10.19;42.44;99845.30;123163;1099;104374;-79
2022/04/06 00:55:56;;;;;;;;;;;;;;;10.18;42.21;99840.89;123162;1099;104424;-79
2022/04/06 00:58:28;;;;;;;19.83;8.97;;;;;;;10.19;41.99;99844.39;123159;1099;104358;-78
2022/04/06 01:01:16;;;;;;;20.00;9.13;;;;;;;10.18;41.96;99854.00;123298;1099;104401;-78
2022/04/06 01:04:01;;;;;;;20.35;9.40;;;;;;;10.17;42.54;99851.34;123185;1099;104341;-78
2022/04/06 01:06:34;;;;;;;20.43;9.13;;;;;;;10.16;42.74;99854.79;123129;1102;104428;-77
2022/04/06 01:09:06;;;;;;;19.83;9.00;;;;;;;10.12;42.35;99856.45;123287;1099;104418;-78
2022/04/06 01:11:41;;;;;;;20.55;10.05;;;;;;;10.11;42.75;99859.03;123104;1099;104424;-78
2022/04/06 01:14:15;;;;;;;39.07;18.83;;;;;;;10.07;42.35;99861.57;123425;1099;104661;-78
2022/04/06 01:17:11;;;;;;;36.63;18.27;;;;;;;10.04;42.75;99856.24;123457;1099;104331;-78
2022/04/06 01:19:47;;;;;;;35.57;15.27;;;;;;;10.03;43.29;99858.82;123368;1099;104329;-77
2022/04/06 01:22:23;;;;;;;32.77;14.80;;;;;;;10.00;43.39;99864.89;123352;1099;104338;-78
2022/04/06 01:24:58;;;;;;;29.53;13.67;;;;;;;9.98;42.96;99861.31;123296;1099;104332;-79
2022/04/06 01:27:34;;;;;;;29.77;14.27;;;;;;;9.95;43.35;99866.47;123367;1099;104289;-78
2022/04/06 01:30:16;;;;;;;26.00;13.50;;;;;;;9.90;43.17;99868.96;123325;1099;104746;-78
2022/04/06 01:33:08;;;;;;;29.00;12.60;;;;;;;9.86;43.79;99868.83;123369;1099;104299;-79
2022/04/06 01:35:45;;;;;;;25.95;12.15;;;;;;;9.81;43.21;99866.08;123224;1099;104427;-78
2022/04/06 01:38:19;;;;;;;29.07;12.73;;;;;;;9.76;43.89;99872.05;123134;1101;104591;-78
2022/04/06 01:40:57;;;;;;;29.60;13.30;;;;;;;9.71;43.53;99872.80;123138;1099;104428;-78
2022/04/06 01:43:28;;;;;;;31.53;15.77;;;;;;;9.67;43.52;99870.92;123109;1099;104714;-79
2022/04/06 01:46:18;;;;;;;29.97;15.13;;;;;;;9.65;43.48;99874.36;123150;1099;104428;-78
2022/04/06 01:54:44;;;;;;;28.57;14.57;;;;;;;9.51;44.42;99874.83;123122;1099;104352;-78
2022/04/06 01:57:30;;;;;;;30.10;14.50;;;;;;;9.49;43.93;99875.61;123177;1099;104811;-78
2022/04/06 02:00:22;;;;;;;31.87;15.23;;;;;;;9.46;43.99;99879.05;123290;1099;104317;-77
2022/04/06 02:02:57;;;;;;;30.43;14.53;;;;;;;9.43;44.33;99883.31;123300;1099;117829;-77
2022/04/06 02:05:47;;;;;;;38.13;19.17;;;;;;;9.37;44.56;99880.50;123127;1100;104450;-78
2022/04/06 02:08:20;;;;;;;46.20;23.10;;;;;;;9.30;44.70;99884.64;123132;1099;104366;-77
2022/04/06 02:10:55;;;;;;;46.73;23.93;;;;;;;9.24;45.05;99893.22;123125;1102;104543;-79
2022/04/06 02:13:33;;;;;;;45.35;22.90;;;;;;;9.21;45.31;99894.83;123267;1099;104456;-78
2022/04/06 02:16:22;;;;;;;44.40;24.17;;;;;;;9.14;45.46;99889.39;123188;1099;104757;-77
2022/04/06 02:18:57;;;;;;;45.17;23.23;;;;;;;9.10;45.08;99891.86;123129;1099;104479;-78
2022/04/06 02:21:29;;;;;;;45.47;22.73;;;;;;;9.06;45.66;99893.50;123232;1097;104351;-79
2022/04/06 02:24:09;;;;;;;42.47;23.30;;;;;;;9.04;45.25;99896.90;123354;1099;104306;-78
2022/04/06 02:26:46;;;;;;;42.53;22.37;;;;;;;9.02;45.85;99895.97;123224;1099;104837;-78
2022/04/06 02:29:29;;;;;;;47.40;22.75;;;;;;;9.00;45.52;99899.42;123145;1099;104581;-78
2022/04/06 02:32:08;;;;;;;44.40;22.70;;;;;;;8.97;45.97;99901.94;123290;1099;104511;-78
2022/04/06 02:34:40;;;;;;;38.03;21.47;;;;;;;8.94;46.17;99904.48;123158;1099;104457;-78
2022/04/06 02:37:17;;;;;;;43.50;22.23;;;;;;;8.89;45.97;99895.58;123225;1099;104476;-78
2022/04/06 02:39:50;;;;;;;42.27;21.90;;;;;;;8.85;46.26;99901.56;123177;1102;104434;-78
2022/04/06 02:42:23;;;;;;;40.60;20.70;;;;;;;8.83;46.39;99907.58;123199;1099;104495;-78
2022/04/06 02:44:55;;;;;;;43.37;21.80;;;;;;;8.77;46.13;99910.86;123115;1099;104349;-77
2022/04/06 02:47:30;;;;;;;48.30;23.03;;;;;;;8.74;46.34;99913.38;123249;1102;104424;-77
2022/04/06 02:50:11;;;;;;;44.07;23.03;;;;;;;8.69;46.67;99920.19;123204;1098;104421;-78
2022/04/06 02:52:46;;;;;;;73.15;25.85;;;;;;;8.64;46.08;99923.52;123160;1099;104441;-77
2022/04/06 02:55:37;;;;;;;46.03;22.97;;;;;;;8.59;46.47;99929.45;123100;1102;104485;-78
2022/04/06 02:58:10;;;;;;;46.55;23.15;;;;;;;8.55;46.94;99932.79;123150;1102;104335;-78
2022/04/06 03:00:50;;;;;;;42.77;22.83;;;;;;;8.52;46.69;99933.56;123124;1098;104755;-78
2022/04/06 03:03:22;;;;;;;44.60;21.87;;;;;;;8.49;46.69;99935.19;123227;1099;105623;-77
2022/04/06 03:05:55;;;;;;;43.95;22.60;;;;;;;8.43;46.97;99933.20;123271;1099;104245;-78
2022/04/06 03:08:31;;;;;;;44.43;22.23;;;;;;;8.38;47.24;99934.78;123434;1099;104242;-78
2022/04/06 03:11:13;;;;;;;45.40;22.50;;;;;;;8.32;46.68;99927.63;123619;1099;104401;-77
2022/04/06 03:13:55;;;;;;;41.27;20.93;;;;;;;8.27;46.83;99926.55;123286;1099;104597;-78
2022/04/06 03:16:42;;;;;;;43.17;20.50;;;;;;;8.22;47.55;99926.39;123507;1099;104720;-78
2022/04/06 03:19:16;;;;;;;42.50;20.93;;;;;;;8.19;47.56;99938.47;123411;1099;104325;-78
2022/04/06 03:21:55;;;;;;;48.00;22.20;;;;;;;8.15;47.14;99937.47;123401;1099;104313;-78
2022/04/06 03:24:31;;;;;;;42.47;20.47;;;;;;;8.13;47.47;99940.85;123618;1099;108050;-78
2022/04/06 03:27:09;;;;;;;42.10;20.75;;;;;;;8.09;47.77;99948.58;123540;1098;104408;-77
2022/04/06 03:29:41;;;;;;;39.07;20.63;;;;;;;8.06;47.75;99958.04;123396;1099;104426;-77
2022/04/06 03:32:18;;;;;;;40.73;20.30;;;;;;;8.03;47.60;99952.70;123398;1099;104249;-78
2022/04/06 03:34:53;;;;;;;42.80;20.20;;;;;;;7.99;47.79;99951.67;123594;1099;117449;-78
2022/04/06 03:37:25;;;;;;;39.97;19.37;;;;;;;7.97;47.68;99958.58;123321;1099;104411;-78
2022/04/06 03:40:05;;;;;;;53.07;22.03;;;;;;;7.94;48.12;99958.45;123385;1099;104363;-77
2022/04/06 03:42:36;;;;;;;44.13;21.30;;;;;;;7.92;48.01;99960.14;123323;1098;104565;-78
2022/04/06 03:45:26;;;;;;;44.70;21.63;;;;;;;7.88;47.88;99959.14;123121;1099;104386;-78
2022/04/06 03:48:09;;;;;;;42.87;20.80;;;;;;;7.88;48.14;99959.14;123135;1099;104766;-78
2022/04/06 03:50:44;;;;;;;44.83;20.33;;;;;;;7.88;48.12;99964.36;123350;1100;104367;-78
2022/04/06 03:53:18;;;;;;;49.13;21.23;;;;;;;7.87;48.08;99956.47;123467;1098;104281;-77
2022/04/06 03:56:05;;;;;;;41.80;21.25;;;;;;;7.87;48.26;99962.58;123249;1099;104289;-77
2022/04/06 03:58:47;;;;;;;39.40;19.53;;;;;;;7.87;48.49;99965.19;123472;1099;104890;-78
2022/04/06 04:01:24;;;;;;;45.77;21.43;;;;;;;7.94;48.58;99962.80;123131;1099;104361;-79
2022/04/06 04:03:59;;;;;;;45.50;21.30;;;;;;;7.98;48.91;99964.68;123440;1099;104988;-79
2022/04/06 04:06:32;;;;;;;42.63;20.57;;;;;;;7.99;48.67;99962.13;123312;1099;104274;-77
2022/04/06 04:09:09;;;;;;;43.50;21.47;;;;;;;8.01;48.71;99965.70;123214;1099;104411;-78
2022/04/06 04:11:44;;;;;;;46.67;21.03;;;;;;;8.04;48.71;99964.91;123266;1099;104315;-78
2022/04/06 04:14:16;;;;;;;46.17;22.43;;;;;;;8.07;49.18;99965.02;123437;1099;104429;-78
2022/04/06 04:16:51;;;;;;;47.47;21.80;;;;;;;8.09;49.03;99961.65;123389;1099;104383;-77
2022/04/06 04:19:23;;;;;;;43.73;22.07;;;;;;;8.12;49.14;99962.58;123344;1099;104216;-77
2022/04/06 04:21:58;;;;;;;46.53;22.50;;;;;;;8.15;48.85;99966.22;123332;1099;104348;-78
2022/04/06 04:24:31;;;;;;;42.95;22.70;;;;;;;8.17;49.23;99969.77;123705;1099;105578;-77
2022/04/06 04:27:08;;;;;;;51.63;22.90;;;;;;;8.23;49.24;99977.84;123603;1099;104393;-78
2022/04/06 04:29:49;;;;;;;48.33;22.87;;;;;;;8.27;49.21;99973.60;123749;1099;104345;-77
2022/04/06 04:32:22;;;;;;;47.60;22.23;;;;;;;8.34;49.32;99979.97;123572;1099;104398;-76
2022/04/06 04:35:03;;;;;;;51.08;21.57;;;;;;;8.41;49.54;99979.33;123387;1098;104233;-78
2022/04/06 04:37:37;;;;;;;53.90;22.60;;;;;;;8.49;49.37;99980.52;123401;1099;104849;-76
2022/04/06 04:40:11;;;;;;;58.10;24.45;;;;;;;8.55;49.60;99980.74;123375;1099;104476;-78
2022/04/06 04:42:44;;;;;;;55.33;23.97;;;;;;;8.62;49.63;99987.10;123475;1099;104377;-78
2022/04/06 04:45:17;;;;;;;47.63;22.60;;;;;;;8.66;49.65;99981.13;123187;1102;104415;-77
2022/04/06 04:47:51;;;;;;;46.63;21.45;;;;;;;8.72;49.68;99993.53;123283;1099;104431;-77
2022/04/06 04:50:23;;;;;;;39.10;21.57;;;;;;;8.79;49.35;99990.31;123137;1099;104316;-79
2022/04/06 04:53:00;;;;;;;47.25;23.15;;;;;;;8.85;49.21;99995.75;123298;1102;104447;-78
2022/04/06 04:55:31;;;;;;;43.10;20.47;;;;;;;8.93;49.24;99996.02;123408;1102;104336;-75
2022/04/06 04:58:04;;;;;;;45.07;21.73;;;;;;;9.00;49.44;99996.25;123373;1102;104293;-77
2022/04/06 05:00:36;;;;;;;43.10;21.20;;;;;;;9.08;50.04;99993.89;123106;1102;104460;-78
2022/04/06 05:03:15;;;;;;;41.00;19.53;;;;;;;9.14;49.91;99994.09;123169;1101;104460;-78
2022/04/06 05:05:56;;;;;;;44.43;20.17;;;;;;;9.23;49.90;99996.14;123175;1099;104384;-78
2022/04/06 05:08:30;;;;;;;43.50;20.37;;;;;;;9.33;49.24;99999.94;123050;1101;104540;-78
2022/04/06 05:11:18;;;;;;;38.85;19.95;;;;;;;9.44;49.75;100000.29;123211;1102;104463;-77
2022/04/06 05:14:03;;;;;;;38.30;18.10;;;;;;;9.54;49.32;99999.76;123250;1102;104415;-76
2022/04/06 05:16:36;;;;;;;42.50;18.83;;;;;;;9.65;49.40;99998.36;123197;1102;104438;-78
2022/04/06 05:19:11;;;;;;;42.43;19.37;;;;;;;9.78;49.54;100003.98;123321;1102;104446;-78
2022/04/06 05:21:49;;;;;;;37.13;18.43;;;;;;;9.90;49.41;100001.73;123355;1102;104409;-79
2022/04/06 05:24:27;;;;;;;37.37;18.00;;;;;;;10.00;49.45;99998.56;123350;1102;104501;-77
2022/04/06 05:27:03;;;;;;;42.15;17.45;;;;;;;10.12;48.92;99998.02;123500;1099;104437;-76
2022/04/06 05:29:43;;;;;;;39.50;17.05;;;;;;;10.24;48.74;100002.75;123570;1097;104423;-77
2022/04/06 05:32:18;;;;;;;36.20;17.13;;;;;;;10.35;49.28;100003.09;123454;1099;104498;-76
2022/04/06 05:35:09;;;;;;;34.00;16.60;;;;;;;10.48;48.85;99999.07;123650;1099;104730;-77
2022/04/06 05:37:40;;;;;;;;;;;;;;;10.57;48.52;99996.70;123389;1099;104283;-76
2022/04/06 05:40:15;;;;;;;29.50;15.03;;;;;;;10.64;48.48;99993.38;123504;1102;104251;-76
2022/04/06 05:42:48;;;;;;;29.13;14.53;;;;;;;10.73;48.64;99996.26;123390;1102;104463;-77
2022/04/06 05:45:24;;;;;;;35.20;16.20;;;;;;;10.84;48.27;99987.80;123445;1102;104273;-77
2022/04/06 05:48:17;;;;;;;33.00;15.17;;;;;;;10.93;48.28;99991.54;123602;1102;107810;-79
2022/04/06 05:50:53;;;;;;;25.97;11.57;;;;;;;11.06;48.26;99994.48;123806;1102;104461;-80
2022/04/06 05:53:25;;;;;;;26.33;11.77;;;;;;;11.18;47.90;99996.55;123705;1102;104392;-76
2022/04/06 05:56:03;;;;;;;28.53;12.10;;;;;;;11.27;47.69;100002.91;123509;1102;104549;-77
2022/04/06 05:58:40;;;;;;;23.77;12.70;;;;;;;11.38;47.26;100003.17;123113;1103;104414;-79
2022/04/06 06:01:12;;;;;;;23.27;10.10;;;;;;;11.48;47.38;100004.28;123211;1105;104437;-78
2022/04/06 06:03:46;;;;;;;23.57;10.20;;;;;;;11.61;47.40;100002.81;123400;1105;104233;-78
2022/04/06 06:06:24;;;;;;;22.33;9.23;;;;;;;11.73;47.39;100004.86;123231;1105;104414;-80
2022/04/06 06:08:56;;;;;;;19.87;8.90;;;;;;;11.84;46.55;100004.27;123277;1105;105616;-79
2022/04/06 06:11:29;;;;;;;18.50;8.40;;;;;;;11.98;46.41;100006.33;123241;1105;104243;-78
2022/04/06 06:14:14;;;;;;;22.43;8.93;;;;;;;12.12;46.41;100007.50;123141;1105;104421;-79
2022/04/06 06:17:12;;;;;;;17.50;8.67;;;;;;;12.28;46.06;99997.31;123116;1103;104383;-77
2022/04/06 06:19:47;;;;;;;19.77;7.90;;;;;;;12.43;46.09;99995.00;123638;1102;104313;-79
2022/04/06 06:22:23;;;;;;;18.50;8.33;;;;;;;12.56;45.88;99994.39;123602;1102;104338;-77
2022/04/06 06:25:11;;;;;;;18.90;8.07;;;;;;;12.65;45.40;100001.56;123490;1102;104233;-79
2022/04/06 06:27:59;;;;;;;19.20;8.10;;;;;;;12.75;45.54;100005.28;123478;1102;104497;-78
2022/04/06 06:30:47;;;;;;;18.17;7.93;;;;;;;12.85;45.30;100001.94;123159;1102;104239;-78
2022/04/06 06:33:33;;;;;;;15.60;7.70;;;;;;;12.98;45.04;99999.53;122981;1102;104466;-78
2022/04/06 06:36:16;;;;;;;16.07;7.97;;;;;;;13.08;44.64;99998.84;122998;1103;104466;-78
2022/04/06 06:39:02;;;;;;;17.90;7.90;;;;;;;13.22;44.62;100006.98;122929;1105;104402;-79
2022/04/06 06:41:36;;;;;;;19.00;7.50;;;;;;;13.38;44.60;100005.52;123596;1102;104306;-78
2022/04/06 06:44:10;;;;;;;18.77;8.43;;;;;;;13.50;44.48;100018.91;123753;1102;104302;-80
2022/04/06 06:46:53;;;;;;;17.82;7.25;;;;;;;13.61;43.67;100019.08;123731;1102;104361;-81
2022/04/06 06:49:36;;;;;;;18.80;7.83;;;;;;;13.80;44.46;100014.96;125593;1102;102196;-80
2022/04/06 06:52:24;;;;;;;18.97;7.40;;;;;;;13.91;43.60;100021.27;123700;1102;118727;-79
2022/04/06 06:54:59;;;;;;;17.80;7.50;;;;;;;14.04;43.81;100019.72;124565;1102;104434;-80
2022/04/06 06:58:00;;;;;;;15.67;7.40;;;;;;;14.17;43.67;100020.77;123616;1102;104478;-77
2022/04/06 07:00:54;;;;;;;13.17;6.30;;;;;;;14.30;42.88;100025.31;123745;1098;104345;-79
2022/04/06 07:03:40;;;;;;;13.73;6.13;;;;;;;14.47;43.67;100030.81;124145;1099;104287;-78
2022/04/06 07:06:14;;;;;;;12.80;5.93;;;;;;;14.62;42.53;100035.44;123703;1099;102306;-79
2022/04/06 07:08:53;;;;;;;13.93;6.47;;;;;;;14.73;42.58;100028.52;123990;1099;104526;-80
2022/04/06 07:11:27;;;;;;;15.73;6.53;;;;;;;14.84;43.21;100031.27;123960;1099;102993;-78
2022/04/06 07:14:01;;;;;;;14.63;6.15;;;;;;;14.96;42.49;100024.34;123729;1099;104960;-78
2022/04/06 07:16:55;;;;;;;15.73;6.50;;;;;;;15.06;42.76;100021.80;123949;1099;102259;-80
2022/04/06 07:19:52;;;;;;;13.30;5.87;;;;;;;15.29;41.83;100018.50;123775;1102;104500;-79
2022/04/06 07:22:37;;;;;;;14.20;6.47;;;;;;;15.49;42.22;100025.70;123782;1102;104382;-78
2022/04/06 07:25:46;;;;;;;12.83;5.77;;;;;;;15.66;41.05;100024.09;123573;1102;104384;-78
2022/04/06 07:28:41;;;;;;;12.20;6.10;;;;;;;15.84;40.44;100027.77;123207;1102;104725;-80
2022/04/06 07:31:23;;;;;;;10.25;5.45;;;;;;;16.01;40.30;100028.76;123611;1103;104367;-78
2022/04/06 07:34:13;;;;;;;11.73;5.47;;;;;;;16.22;39.02;100028.00;123352;1102;104291;-78
2022/04/06 07:36:51;;;;;;;13.57;5.83;;;;;;;16.40;39.81;100037.78;123288;1102;104206;-77
2022/04/06 07:39:31;;;;;;;12.77;6.00;;;;;;;16.41;38.09;100026.32;123342;1102;102593;-77
2022/04/06 07:42:25;;;;;;;11.70;5.90;;;;;;;16.49;39.83;100027.23;123524;1105;104425;-77
2022/04/06 07:47:37;;;;;;;11.30;5.63;;;;;;;16.84;37.76;100010.58;124029;1102;104233;-77
2022/04/06 07:50:32;;;;;;;12.83;5.30;;;;;;;17.03;37.97;100011.52;124349;1102;104220;-78
2022/04/06 07:53:06;;;;;;;13.50;5.50;;;;;;;17.17;37.92;100015.94;124140;1102;104345;-79
2022/04/06 07:55:50;;;;;;;12.57;5.50;;;;;;;17.24;38.38;100015.95;123574;1103;102803;-77
2022/04/06 07:58:33;;;;;;;11.87;5.53;;;;;;;17.33;37.05;100015.08;124582;1102;108546;-78
2022/04/06 08:01:08;;;;;;;15.35;6.03;;;;;;;17.44;37.84;100028.34;123772;1102;104201;-78
2022/04/06 08:03:44;;;;;;;13.57;5.47;;;;;;;17.52;37.23;100037.17;123843;1102;104357;-77
2022/04/06 08:06:17;;;;;;;9.57;4.93;;;;;;;17.58;37.24;100026.56;123716;1102;104265;-77
2022/04/06 08:08:54;;;;;;;10.47;4.60;;;;;;;17.68;37.01;100023.91;123606;1102;119129;-78
2022/04/06 08:11:30;;;;;;;9.80;4.43;;;;;;;17.74;36.49;100021.25;123375;1102;104399;-80
2022/04/06 08:14:08;;;;;;;9.80;4.33;;;;;;;17.74;36.92;100014.16;123563;1102;104319;-78
2022/04/06 08:16:41;;;;;;;7.63;4.47;;;;;;;17.73;36.51;100014.16;123610;1105;104338;-79
2022/04/06 08:19:15;;;;;;;11.10;4.42;;;;;;;17.73;36.67;100015.06;124134;1103;102908;-78
2022/04/06 08:21:46;;;;;;;;;;;;;;;17.77;35.84;100022.11;123440;1102;104240;-79
2022/04/06 08:24:20;;;;;;;6.90;4.07;;;;;;;17.80;36.13;100021.23;123633;1102;104402;-78
2022/04/06 08:26:53;;;;;;;7.57;3.40;;;;;;;17.86;35.95;100017.70;123822;1102;104220;-78
2022/04/06 08:29:29;;;;;;;8.17;4.03;;;;;;;17.87;35.92;100025.66;124034;1102;104262;-79
2022/04/06 08:32:19;;;;;;;5.43;3.27;;;;;;;17.94;35.87;100019.47;124464;1103;104239;-80
2022/04/06 08:35:11;;;;;;;10.77;3.30;;;;;;;18.02;35.59;100013.27;124704;1102;104312;-79
2022/04/06 08:37:52;;;;;;;;;;;;;;;18.02;35.70;100024.77;124260;1102;104194;-78
2022/04/06 08:40:58;;;;;;;7.93;3.50;;;;;;;18.08;35.46;100015.91;124207;1102;104191;-77
2022/04/06 08:43:37;;;;;;;5.67;3.47;;;;;;;18.11;35.61;100006.16;124429;1101;104307;-78
2022/04/06 08:46:19;;;;;;;20.67;6.83;;;;;;;18.21;35.77;100012.31;123990;1102;104210;-78
2022/04/06 08:49:12;;;;;;;6.17;3.10;;;;;;;18.23;35.70;100010.55;123259;1102;104166;-77
2022/04/06 08:55:09;;;;;;;4.25;3.10;;;;;;;18.37;34.52;100009.59;123909;1102;104312;-78
2022/04/06 08:57:42;;;;;;;7.83;3.40;;;;;;;18.43;35.20;100006.92;123491;1105;104402;-77
2022/04/06 09:00:29;;;;;;;6.23;3.47;;;;;;;18.45;35.05;100005.12;123448;1102;104251;-77
2022/04/06 09:03:01;;;;;;;5.77;3.30;;;;;;;18.40;34.59;100007.84;123107;1102;104333;-77
2022/04/06 09:05:38;;;;;;;4.60;3.07;;;;;;;18.39;34.04;99995.44;123468;1102;104265;-76
2022/04/06 09:08:15;;;;;;;4.73;2.87;;;;;;;18.41;34.06;100009.58;123698;1102;104261;-75
2022/04/06 09:10:48;;;;;;;6.90;3.10;;;;;;;18.46;34.43;100006.91;123046;1102;104317;-76
2022/04/06 09:13:20;;;;;;;5.30;3.10;;;;;;;18.53;34.93;100006.00;122962;1102;104329;-76
2022/04/06 09:16:01;;;;;;;5.67;3.40;;;;;;;18.59;34.16;100005.97;123093;1102;104294;-75
2022/04/06 09:18:41;;;;;;;6.33;3.07;;;;;;;18.63;34.11;100004.17;123280;1102;104403;-76
2022/04/06 09:21:17;;;;;;;8.40;3.57;;;;;;;18.58;33.59;100001.53;123618;1102;104644;-78
2022/04/06 09:23:50;;;;;;;5.97;3.50;;;;;;;18.48;33.34;99999.80;123831;1102;104274;-78
2022/04/06 09:26:22;;;;;;;5.95;3.30;;;;;;;18.51;33.62;99994.47;124000;1102;104318;-75
2022/04/06 09:28:54;;;;;;;6.45;3.70;;;;;;;18.59;33.51;99997.09;123462;1102;104275;-74
2022/04/06 09:31:28;;;;;;;8.07;3.93;;;;;;;18.62;33.67;100005.95;123858;1102;104317;-75
2022/04/06 09:34:02;;;;;;;6.77;3.17;;;;;;;18.68;33.46;99986.42;124024;1102;104267;-78
2022/04/06 09:36:38;;;;;;;6.83;3.17;;;;;;;18.82;33.53;99989.00;123704;1102;104323;-78
2022/04/06 09:39:12;;;;;;;6.47;3.53;;;;;;;18.88;33.68;99983.67;123915;1102;104168;-78
2022/04/06 09:47:51;;;;;;;6.60;3.87;;;;;;;18.99;32.28;99975.63;123590;1102;104239;-77
2022/04/06 09:50:27;;;;;;;8.40;3.97;;;;;;;19.04;33.28;99974.72;124392;1102;104239;-76
2022/04/06 09:53:14;;;;;;;8.20;3.93;;;;;;;19.07;32.94;99986.20;124035;1102;104242;-79
2022/04/06 09:56:10;;;;;;;;;;;;;;;;;;;;;
2022/04/06 09:59:02;;;;;;;7.73;3.90;;;;;;;19.17;32.93;99978.16;124088;1105;104226;-77
2022/04/06 10:01:43;;;;;;;5.87;3.50;;;;;;;19.25;33.36;99979.88;123835;1102;104277;-76
2022/04/06 10:04:21;;;;;;;8.93;4.10;;;;;;;19.34;32.93;99972.70;123991;1102;104309;-77
2022/04/06 10:06:54;;;;;;;7.73;3.90;;;;;;;19.41;32.62;99962.87;124720;1100;104387;-77
2022/04/06 10:09:28;;;;;;;7.60;3.67;;;;;;;19.46;33.21;99969.06;124145;1099;104187;-77
2022/04/06 10:12:04;;;;;;;8.40;3.80;;;;;;;19.50;32.51;99977.88;124197;1102;104264;-76
2022/04/06 10:14:37;;;;;;;10.93;4.50;;;;;;;19.50;32.69;99975.22;124190;1102;104351;-76
2022/04/06 10:17:17;;;;;;;7.40;3.70;;;;;;;19.48;32.41;99979.69;124286;1100;102517;-77
2022/04/06 10:20:02;;;;;;;6.07;3.80;;;;;;;19.47;32.94;99970.80;124374;1103;104246;-77
2022/04/06 10:22:44;;;;;;;6.63;3.80;;;;;;;19.55;32.01;99966.28;124307;1102;104363;-77
2022/04/06 10:25:28;;;;;;;9.10;3.75;;;;;;;19.57;32.20;99967.17;124075;1102;104249;-77
2022/04/06 10:28:06;;;;;;;8.77;3.83;;;;;;;19.59;32.00;99967.16;123898;1102;104195;-77
2022/04/06 10:30:41;;;;;;;9.63;3.90;;;;;;;19.61;32.75;99970.67;125272;1102;104228;-77
2022/04/06 10:33:28;;;;;;;6.63;3.30;;;;;;;19.63;32.43;99963.55;124128;1102;104169;-76
2022/04/06 10:36:19;;;;;;;8.40;3.67;;;;;;;19.65;32.44;99955.55;124265;1101;104214;-77
2022/04/06 10:39:22;;;;;;;6.53;3.57;;;;;;;19.77;31.88;99968.77;124054;1102;104174;-75
2022/04/06 10:42:18;;;;;;;9.88;3.70;;;;;;;19.80;31.84;99959.88;123849;1102;104463;-76
2022/04/06 10:44:53;;;;;;;6.10;3.30;;;;;;;19.80;32.05;99960.74;123748;1102;104204;-75
2022/04/06 10:47:31;;;;;;;3.67;3.00;;;;;;;19.84;32.05;99962.48;123711;1102;104258;-76
2022/04/06 10:50:27;;;;;;;11.00;4.50;;;;;;;19.87;31.68;99951.80;123643;1105;104693;-76
2022/04/06 10:53:33;;;;;;;5.50;3.15;;;;;;;19.90;30.60;99961.55;123515;1105;104440;-77
2022/04/06 10:56:12;;;;;;;6.27;3.27;;;;;;;19.90;31.26;99958.89;124255;1105;104254;-77
2022/04/06 10:59:17;;;;;;;4.83;2.63;;;;;;;19.79;30.64;99952.77;123723;1105;104385;-81
2022/04/06 11:02:24;;;;;;;3.63;2.70;;;;;;;19.74;31.04;99955.45;123379;1106;104347;-77
2022/04/06 11:05:02;;;;;;;7.33;3.33;;;;;;;19.82;30.68;99952.74;123443;1104;104354;-78
2022/04/06 11:10:44;;;;;;;4.80;3.23;;;;;;;19.89;31.17;99943.80;123448;1105;104351;-77
2022/04/06 11:13:27;;;;;;;4.57;3.00;;;;;;;19.96;30.47;99925.97;123623;1105;104354;-80
2022/04/06 11:16:01;;;;;;;7.83;3.17;;;;;;;19.99;30.42;99934.81;124793;1105;103123;-76
2022/04/06 11:18:51;;;;;;;5.20;3.15;;;;;;;20.03;30.97;99925.87;124307;1104;104245;-78
2022/04/06 11:21:23;;;;;;;9.37;3.43;;;;;;;20.00;30.22;99928.57;123546;1102;104405;-78
2022/04/06 11:24:04;;;;;;;6.07;3.40;;;;;;;19.98;30.34;99941.03;124036;1105;104434;-79
2022/04/06 11:26:41;;;;;;;7.47;3.40;;;;;;;19.90;29.73;99924.27;123962;1105;104175;-78
2022/04/06 11:29:20;;;;;;;4.90;3.17;;;;;;;19.87;29.99;99930.50;123947;1102;102323;-77
2022/04/06 11:32:08;;;;;;;5.80;3.27;;;;;;;19.84;30.14;99935.86;124571;1102;104377;-78
2022/04/06 11:34:42;;;;;;;7.33;3.53;;;;;;;19.83;29.86;99922.57;123882;1102;104412;-78
2022/04/06 11:37:20;;;;;;;5.23;3.07;;;;;;;19.79;30.00;99920.83;124521;1101;104416;-80
2022/04/06 11:40:05;;;;;;;5.90;3.10;;;;;;;19.69;29.91;99928.02;124537;1102;104338;-79
2022/04/06 11:42:41;;;;;;;5.20;3.30;;;;;;;19.64;29.64;99927.19;124235;1102;104648;-79
2022/04/06 11:45:23;;;;;;;6.20;3.30;;;;;;;19.63;29.69;99918.30;124101;1102;104194;-80
2022/04/06 11:51:59;;;;;;;5.40;3.10;;;;;;;19.75;29.64;99918.17;125708;1102;102134;-82
2022/04/06 11:54:38;;;;;;;6.97;2.90;;;;;;;19.74;30.04;99915.52;124815;1102;104338;-79
2022/04/06 11:57:12;;;;;;;4.43;3.00;;;;;;;19.78;29.74;99921.75;124594;1102;104449;-80
2022/04/06 11:59:57;;;;;;;7.97;3.30;;;;;;;19.77;29.61;99919.98;124444;1099;104403;-80
2022/04/06 12:02:55;;;;;;;8.95;3.60;;;;;;;19.74;29.70;99912.86;124179;1102;104216;-79
2022/04/06 12:05:33;;;;;;;6.17;3.20;;;;;;;19.74;29.97;99910.20;123951;1099;104239;-78
2022/04/06 12:08:31;;;;;;;6.83;3.10;;;;;;;19.75;29.92;99910.19;123597;1099;104264;-79
2022/04/06 12:11:09;;;;;;;4.65;2.90;;;;;;;19.73;29.50;99905.80;124066;1099;104269;-77
2022/04/06 12:13:52;;;;;;;5.20;3.40;;;;;;;19.77;29.61;99906.67;123579;1100;104236;-78
2022/04/06 12:16:28;;;;;;;5.10;3.20;;;;;;;19.82;29.54;99910.15;124316;1099;104290;-79
2022/04/06 12:19:08;;;;;;;7.93;3.30;;;;;;;19.82;30.01;99904.82;123644;1099;108074;-78
2022/04/06 12:21:54;;;;;;;4.47;3.00;;;;;;;19.85;29.60;99900.37;123111;1102;104427;-79
2022/04/06 12:24:44;;;;;;;6.13;2.97;;;;;;;19.91;29.60;99910.04;123221;1102;104623;-79
2022/04/06 12:27:49;;;;;;;6.90;3.40;;;;;;;19.98;29.98;99901.09;123410;1103;104322;-78
2022/04/06 12:30:21;;;;;;;7.43;3.13;;;;;;;19.99;29.50;99901.96;123309;1102;104353;-79
2022/04/06 12:33:05;;;;;;;5.80;2.90;;;;;;;19.97;30.23;99890.45;123113;1102;104248;-78
2022/04/06 12:35:41;;;;;;;5.97;3.40;;;;;;;20.01;29.59;99893.06;123671;1105;104348;-78